createdAt,value
2022-08-11T00:04:57.064Z,23.90
2022-08-11T00:10:00.641Z,23.80
2022-08-11T00:15:04.192Z,23.70
2022-08-11T00:20:15.715Z,23.60
2022-08-11T00:25:20.637Z,23.60
2022-08-11T00:30:23.864Z,23.60
2022-08-11T00:35:51.404Z,23.50
2022-08-11T00:40:58.340Z,23.50
2022-08-11T00:46:10.424Z,23.40
2022-08-11T00:51:21.213Z,23.20
2022-08-11T00:56:42.677Z,23.10
2022-08-11T01:01:53.153Z,23.20
2022-08-11T01:07:11.497Z,22.90
2022-08-11T01:12:29.533Z,23.00
2022-08-11T01:17:50.585Z,22.80
2022-08-11T01:23:27.003Z,22.70
2022-08-11T01:28:51.046Z,22.70
2022-08-11T01:34:20.982Z,22.80
2022-08-11T01:39:39.879Z,22.60
2022-08-11T01:44:59.404Z,22.60
2022-08-11T01:50:10.666Z,22.50
2022-08-11T01:55:17.849Z,22.40
2022-08-11T02:00:22.143Z,22.30
2022-08-11T02:05:28.720Z,22.30
2022-08-11T02:10:54.463Z,22.10
2022-08-11T02:16:07.384Z,22.10
2022-08-11T02:21:29.748Z,22.20
2022-08-11T02:26:36.952Z,22.10
2022-08-11T02:32:24.003Z,22.10
2022-08-11T02:37:30.666Z,22.10
2022-08-11T02:42:39.312Z,21.90
2022-08-11T02:48:07.171Z,21.80
2022-08-11T02:53:12.732Z,21.80
2022-08-11T02:58:19.904Z,21.80
2022-08-11T03:03:33.371Z,21.70
2022-08-11T03:08:51.347Z,21.60
2022-08-11T03:14:18.022Z,21.60
2022-08-11T03:19:25.900Z,21.60
2022-08-11T03:24:32.752Z,21.50
2022-08-11T03:29:42.144Z,21.50
2022-08-11T03:34:46.178Z,21.40
2022-08-11T03:39:57.221Z,21.30
2022-08-11T03:45:18.301Z,21.30
2022-08-11T03:50:28.610Z,21.40
2022-08-11T03:55:40.124Z,21.40
2022-08-11T04:01:03.949Z,21.30
2022-08-11T04:06:26.713Z,21.20
2022-08-11T04:11:47.719Z,21.20
2022-08-11T04:17:00.763Z,21.00
2022-08-11T04:22:30.417Z,21.00
2022-08-11T04:27:57.245Z,21.00
2022-08-11T04:33:24.537Z,20.90
2022-08-11T04:38:39.555Z,20.90
2022-08-11T04:44:06.189Z,20.90
2022-08-11T04:49:38.912Z,20.90
2022-08-11T04:55:07.469Z,20.90
2022-08-11T05:00:29.372Z,20.70
2022-08-11T05:05:56.537Z,20.70
2022-08-11T05:11:08.869Z,20.70
2022-08-11T05:16:30.313Z,20.80
2022-08-11T05:21:52.951Z,20.80
2022-08-11T05:27:14.090Z,20.90
2022-08-11T05:32:35.774Z,21.10
2022-08-11T05:37:57.313Z,21.00
2022-08-11T05:43:18.273Z,21.20
2022-08-11T05:48:39.503Z,21.40
2022-08-11T05:54:06.676Z,21.40
2022-08-11T05:59:30.544Z,21.50
2022-08-11T06:04:33.959Z,21.70
2022-08-11T06:09:39.308Z,22.00
2022-08-11T06:14:43.729Z,22.00
2022-08-11T06:19:48.956Z,22.20
2022-08-11T06:24:57.564Z,22.30
2022-08-11T06:30:01.144Z,22.60
2022-08-11T06:35:11.478Z,23.20
2022-08-11T06:40:21.909Z,23.30
2022-08-11T06:45:31.793Z,23.50
2022-08-11T06:50:52.648Z,23.60
2022-08-11T06:56:16.596Z,23.60
2022-08-11T07:01:22.846Z,23.60
2022-08-11T07:06:41.499Z,23.60
2022-08-11T07:12:20.943Z,23.70
2022-08-11T07:17:24.818Z,23.70
2022-08-11T07:22:48.157Z,23.70
2022-08-11T07:28:15.638Z,23.80
2022-08-11T07:34:06.409Z,23.80
2022-08-11T07:38:50.886Z,23.90
2022-08-11T07:44:09.121Z,23.90
2022-08-11T07:49:30.231Z,23.90
2022-08-11T07:54:33.592Z,24.00
2022-08-11T08:00:00.561Z,24.00
2022-08-11T08:05:25.889Z,24.00
2022-08-11T08:10:47.717Z,24.00
2022-08-11T08:16:10.157Z,24.10
2022-08-11T08:21:14.653Z,24.10
2022-08-11T08:26:35.499Z,24.20
2022-08-11T08:31:40.044Z,24.20
2022-08-11T08:36:43.844Z,24.20
2022-08-11T08:41:47.396Z,24.20
2022-08-11T08:46:52.306Z,24.30
2022-08-11T08:52:19.281Z,24.30
2022-08-11T08:57:20.804Z,24.30
2022-08-11T09:02:33.890Z,24.30
2022-08-11T09:07:38.725Z,24.30
2022-08-11T09:12:43.423Z,24.30
2022-08-11T09:17:48.850Z,24.40
2022-08-11T09:28:34.501Z,24.40
2022-08-11T09:33:39.733Z,24.50
2022-08-11T09:39:03.613Z,24.50
2022-08-11T09:44:24.526Z,24.50
2022-08-11T09:49:29.967Z,24.50
2022-08-11T09:54:33.009Z,24.50
2022-08-11T09:59:36.720Z,24.50
2022-08-11T10:04:42.085Z,24.60
2022-08-11T10:09:47.420Z,24.60
2022-08-11T10:15:10.024Z,24.60
2022-08-11T10:20:14.384Z,24.60
2022-08-11T10:25:34.769Z,24.60
2022-08-11T10:30:56.600Z,24.70
2022-08-11T10:36:01.763Z,24.60
2022-08-11T10:41:23.005Z,24.70
2022-08-11T10:46:43.739Z,24.70
2022-08-11T10:52:06.295Z,24.70
2022-08-11T10:57:28.478Z,24.70
2022-08-11T11:02:31.914Z,24.80
2022-08-11T11:07:44.100Z,24.70
2022-08-11T11:13:06.057Z,24.80
2022-08-11T11:18:11.845Z,24.80
2022-08-11T11:23:18.664Z,24.80
2022-08-11T11:28:29.794Z,24.80
2022-08-11T11:34:03.802Z,24.90
2022-08-11T11:39:05.615Z,24.90
2022-08-11T11:44:08.905Z,24.90
2022-08-11T11:49:16.638Z,24.90
2022-08-11T11:54:23.733Z,24.90
2022-08-11T11:59:45.072Z,24.90
2022-08-11T12:04:48.835Z,24.90
2022-08-11T12:09:53.344Z,24.90
2022-08-11T12:14:56.533Z,25.00
2022-08-11T12:19:59.653Z,25.00
2022-08-11T12:25:23.878Z,25.00
2022-08-11T12:30:26.987Z,25.00
2022-08-11T12:35:29.992Z,25.10
2022-08-11T12:41:15.081Z,25.10
2022-08-11T12:46:20.573Z,25.10
2022-08-11T12:52:00.820Z,25.10
2022-08-11T12:57:36.397Z,25.10
2022-08-11T13:02:58.955Z,25.10
2022-08-11T13:08:02.513Z,25.10
2022-08-11T13:13:55.967Z,25.10
2022-08-11T13:18:31.603Z,25.20
2022-08-11T13:23:36.043Z,25.10
2022-08-11T13:28:41.048Z,25.20
2022-08-11T13:33:45.896Z,25.20
2022-08-11T13:38:51.948Z,25.20
2022-08-11T13:43:56.608Z,25.20
2022-08-11T13:49:00.703Z,25.20
2022-08-11T13:54:06.094Z,25.20
2022-08-11T13:59:11.295Z,25.30
2022-08-11T14:04:30.882Z,25.30
2022-08-11T14:09:37.161Z,25.30
2022-08-11T14:14:41.687Z,25.30
2022-08-11T14:19:45.830Z,25.40
2022-08-11T14:24:49.715Z,25.40
2022-08-11T14:29:54.676Z,25.40
2022-08-11T14:34:58.943Z,25.40
2022-08-11T14:40:22.679Z,25.40
2022-08-11T14:45:54.277Z,25.40
2022-08-11T14:51:02.178Z,25.50
2022-08-11T14:56:24.309Z,25.50
2022-08-11T15:01:48.887Z,25.50
2022-08-11T15:06:52.415Z,25.50
2022-08-11T15:12:32.604Z,25.50
2022-08-11T15:17:43.469Z,25.50
2022-08-11T15:23:04.376Z,25.50
2022-08-11T15:28:26.252Z,25.60
2022-08-11T15:33:49.178Z,25.50
2022-08-11T15:38:55.818Z,25.60
2022-08-11T15:44:16.238Z,25.60
2022-08-11T15:49:23.885Z,25.60
2022-08-11T15:54:31.133Z,25.60
2022-08-11T15:59:53.406Z,25.60
2022-08-11T16:04:59.561Z,25.60
2022-08-11T16:10:04.962Z,25.70
2022-08-11T16:15:41.780Z,25.70
2022-08-11T16:20:46.561Z,25.70
2022-08-11T16:27:01.456Z,25.70
2022-08-11T16:31:15.772Z,25.70
2022-08-11T16:36:38.265Z,25.70
2022-08-11T16:41:59.155Z,25.70
2022-08-11T16:47:03.501Z,25.80
2022-08-11T16:52:11.888Z,25.80
2022-08-11T16:57:34.495Z,25.80
2022-08-11T17:02:58.410Z,25.80
2022-08-11T17:08:20.998Z,25.80
2022-08-11T17:13:30.703Z,25.80
2022-08-11T17:18:44.219Z,25.80
2022-08-11T17:23:50.615Z,25.80
2022-08-11T17:28:58.089Z,25.80
2022-08-11T17:34:18.785Z,25.90
2022-08-11T17:39:25.567Z,25.90
2022-08-11T17:44:46.612Z,25.90
2022-08-11T17:49:50.453Z,25.90
2022-08-11T17:55:15.916Z,25.90
2022-08-11T18:00:19.592Z,25.90
2022-08-11T18:05:24.885Z,25.90
2022-08-11T18:10:47.816Z,25.90
2022-08-11T18:16:09.154Z,26.00
2022-08-11T18:21:30.528Z,26.00
2022-08-11T18:26:52.270Z,26.00
2022-08-11T18:32:21.917Z,26.00
2022-08-11T18:37:45.673Z,26.00
2022-08-11T18:43:08.729Z,26.00
2022-08-11T18:48:35.954Z,26.00
2022-08-11T18:53:59.414Z,26.00
2022-08-11T18:59:22.848Z,26.00
2022-08-11T19:04:44.077Z,26.00
2022-08-11T19:10:04.736Z,26.00
2022-08-11T19:15:30.694Z,26.00
2022-08-11T19:20:52.123Z,26.00
2022-08-11T19:26:12.638Z,26.10
2022-08-11T19:31:34.368Z,26.10
2022-08-11T19:36:54.852Z,26.10
2022-08-11T19:42:15.973Z,26.20
2022-08-11T19:47:38.660Z,26.20
2022-08-11T19:52:59.482Z,26.10
2022-08-11T19:58:19.997Z,26.20
2022-08-11T20:03:41.921Z,26.20
2022-08-11T20:09:02.930Z,26.10
2022-08-11T20:14:24.528Z,26.10
2022-08-11T20:19:56.154Z,25.90
2022-08-11T20:25:16.868Z,25.90
2022-08-11T20:30:37.831Z,25.90
2022-08-11T20:35:59.888Z,25.90
2022-08-11T20:41:21.340Z,25.90
2022-08-11T20:46:42.028Z,25.90
2022-08-11T20:52:06.074Z,25.90
2022-08-11T21:03:09.049Z,25.90
2022-08-11T21:08:31.231Z,25.80
2022-08-11T21:13:55.821Z,25.90
2022-08-11T21:19:59.825Z,25.90
2022-08-11T21:25:02.020Z,25.90
2022-08-11T21:30:23.073Z,25.90
2022-08-11T21:35:45.128Z,25.90
2022-08-11T21:41:09.174Z,25.90
2022-08-11T21:46:33.720Z,25.90
2022-08-11T21:51:57.231Z,25.90
2022-08-11T21:57:19.467Z,25.90
2022-08-11T22:02:40.550Z,25.90
2022-08-11T22:08:01.448Z,25.80
2022-08-11T22:13:23.092Z,25.70
2022-08-11T22:18:44.073Z,25.70
2022-08-11T22:24:05.448Z,25.70
2022-08-11T22:29:50.881Z,25.70
2022-08-11T22:35:11.037Z,25.50
2022-08-11T22:40:31.909Z,25.40
2022-08-11T22:45:53.590Z,25.30
2022-08-11T22:51:14.665Z,25.20
2022-08-11T22:56:35.409Z,25.20
2022-08-11T23:01:57.776Z,25.10
2022-08-11T23:07:49.249Z,25.00
2022-08-11T23:12:58.772Z,25.00
2022-08-11T23:18:20.869Z,24.80
2022-08-11T23:23:41.756Z,24.70
2022-08-11T23:29:05.252Z,24.50
2022-08-11T23:35:02.450Z,24.40
2022-08-11T23:40:12.509Z,24.40
2022-08-11T23:45:33.141Z,24.40
2022-08-11T23:50:54.888Z,24.30
2022-08-11T23:56:15.070Z,24.30
